Time;durP1;ratioP1;P1;durP2;ratioP2;P2;SDS_P1;SDS_P2;PMS_P1;PMS_P2;Temp;Humidity;BMP_temperature;BMP_pressure;BME280_temperature;BME280_humidity;BME280_pressure;Samples;Min_cycle;Max_cycle;Signal;HPM_P1;HPM_P2
2021/04/07 00:00:37;;;;;;;4.00;0.97;;;1.40;99.90;;;;;;5093383;28;20203;-65
2021/04/07 00:03:04;;;;;;;3.70;0.52;;;1.40;99.90;;;;;;5093077;28;20192;-65
2021/04/07 00:05:35;;;;;;;4.97;1.25;;;1.40;99.90;;;;;;5092848;28;20552;-65
2021/04/07 00:08:02;;;;;;;3.88;0.93;;;1.30;99.90;;;;;;5092988;28;20516;-64
2021/04/07 00:10:34;;;;;;;4.85;0.85;;;1.30;99.90;;;;;;5093284;28;20192;-64
2021/04/07 00:13:00;;;;;;;3.70;0.93;;;1.30;99.90;;;;;;5093277;28;20164;-65
2021/04/07 00:15:28;;;;;;;4.00;0.90;;;1.30;99.90;;;;;;5092608;28;20242;-65
2021/04/07 00:17:54;;;;;;;4.88;1.35;;;1.30;99.90;;;;;;5093043;28;20426;-65
2021/04/07 00:20:23;;;;;;;4.15;1.00;;;1.30;99.90;;;;;;5093169;28;20164;-65
2021/04/07 00:22:49;;;;;;;3.80;0.80;;;1.20;99.90;;;;;;5092979;28;20196;-65
2021/04/07 00:25:17;;;;;;;3.95;0.73;;;1.20;99.90;;;;;;5092667;28;20199;-65
2021/04/07 00:27:44;;;;;;;4.45;1.25;;;1.20;99.90;;;;;;5093106;28;20168;-65
2021/04/07 00:30:11;;;;;;;3.60;0.55;;;1.30;99.90;;;;;;5093170;28;20636;-65
2021/04/07 00:32:37;;;;;;;3.60;0.50;;;1.20;99.90;;;;;;5093129;28;20176;-65
2021/04/07 00:35:05;;;;;;;3.70;0.77;;;1.30;99.90;;;;;;5092697;28;20175;-65
2021/04/07 00:37:30;;;;;;;3.65;0.82;;;1.30;99.90;;;;;;5091567;28;20198;-65
2021/04/07 00:39:56;;;;;;;3.93;0.87;;;1.30;99.90;;;;;;5092861;28;20634;-65
2021/04/07 00:42:22;;;;;;;3.60;0.70;;;1.30;99.90;;;;;;5096131;28;20168;-64
2021/04/07 00:44:48;;;;;;;3.40;0.40;;;1.20;99.90;;;;;;5096443;28;20168;-65
2021/04/07 00:47:16;;;;;;;3.50;0.70;;;1.20;99.90;;;;;;5096781;28;20576;-65
2021/04/07 00:49:42;;;;;;;3.60;0.73;;;1.20;99.90;;;;;;5096756;28;20263;-65
2021/04/07 00:52:08;;;;;;;7.00;1.47;;;1.20;99.90;;;;;;5096200;28;20677;-64
2021/04/07 00:54:34;;;;;;;3.60;0.50;;;1.10;99.90;;;;;;5086985;28;20420;-65
2021/04/07 00:57:01;;;;;;;3.80;1.17;;;1.10;99.90;;;;;;5096465;28;20425;-65
2021/04/07 00:59:27;;;;;;;4.00;1.20;;;1.00;99.90;;;;;;5096500;28;20196;-65
2021/04/07 01:01:55;;;;;;;3.60;0.70;;;1.00;99.90;;;;;;5095188;28;20180;-65
2021/04/07 01:04:21;;;;;;;3.70;0.70;;;1.00;99.90;;;;;;5096202;28;20195;-65
2021/04/07 01:06:47;;;;;;;3.50;0.40;;;1.00;99.90;;;;;;5095721;28;20204;-65
2021/04/07 01:09:13;;;;;;;3.50;0.50;;;1.00;99.90;;;;;;5096494;28;20194;-64
2021/04/07 01:11:38;;;;;;;3.83;0.77;;;1.00;99.90;;;;;;5096407;28;20156;-64
2021/04/07 01:14:05;;;;;;;3.53;0.60;;;1.00;99.90;;;;;;5095858;28;20181;-65
2021/04/07 01:16:32;;;;;;;3.60;0.70;;;0.90;99.90;;;;;;5096264;28;20184;-65
2021/04/07 01:18:57;;;;;;;3.50;0.70;;;1.00;99.90;;;;;;5096255;28;20217;-65
2021/04/07 01:21:23;;;;;;;3.70;0.70;;;1.00;99.90;;;;;;5095937;28;20180;-65
2021/04/07 01:23:49;;;;;;;3.40;0.50;;;1.00;99.90;;;;;;5095739;28;20203;-64
2021/04/07 01:26:16;;;;;;;3.80;0.90;;;1.00;99.90;;;;;;5095896;28;20188;-65
2021/04/07 01:28:43;;;;;;;3.50;0.50;;;1.00;99.90;;;;;;5096215;28;20160;-65
2021/04/07 01:31:09;;;;;;;4.40;1.38;;;0.90;99.90;;;;;;5096189;28;20636;-65
2021/04/07 01:33:35;;;;;;;4.37;1.07;;;0.90;99.90;;;;;;5095810;28;20180;-65
2021/04/07 01:36:02;;;;;;;4.10;1.15;;;1.00;99.90;;;;;;5094950;28;20452;-64
2021/04/07 01:38:28;;;;;;;3.60;0.40;;;0.90;99.90;;;;;;5095831;28;20531;-65
2021/04/07 01:40:55;;;;;;;4.38;1.40;;;0.90;99.90;;;;;;5095446;28;20172;-65
2021/04/07 01:43:22;;;;;;;3.60;0.40;;;0.90;99.90;;;;;;5095606;28;20200;-65
2021/04/07 01:45:50;;;;;;;3.90;0.82;;;0.80;99.90;;;;;;5094856;28;20203;-65
2021/04/07 01:48:17;;;;;;;3.65;0.70;;;0.80;99.90;;;;;;5095703;28;20168;-65
2021/04/07 01:50:48;;;;;;;3.70;0.70;;;0.70;99.90;;;;;;5095323;28;20306;-67
2021/04/07 01:53:14;;;;;;;3.65;0.63;;;0.60;99.90;;;;;;5095325;28;20213;-65
2021/04/07 01:55:40;;;;;;;3.58;0.50;;;0.60;99.90;;;;;;5094987;28;20192;-65
2021/04/07 01:58:06;;;;;;;3.63;0.55;;;0.60;99.90;;;;;;5095411;28;20216;-65
2021/04/07 02:00:32;;;;;;;3.80;0.85;;;0.50;99.90;;;;;;5095177;28;20208;-64
2021/04/07 02:03:01;;;;;;;5.07;1.92;;;0.50;99.90;;;;;;5095414;28;20671;-64
2021/04/07 02:05:28;;;;;;;3.75;0.55;;;0.50;99.90;;;;;;5094299;28;20195;-65
2021/04/07 02:07:54;;;;;;;3.72;0.68;;;0.50;99.90;;;;;;5093641;28;20642;-65
2021/04/07 02:10:19;;;;;;;3.93;0.80;;;0.50;99.90;;;;;;5094895;28;20179;-65
2021/04/07 02:12:51;;;;;;;3.87;0.80;;;0.40;99.90;;;;;;5095181;28;20191;-65
2021/04/07 02:15:16;;;;;;;3.72;0.60;;;0.40;99.90;;;;;;5094807;28;20171;-65
2021/04/07 02:17:44;;;;;;;4.27;1.37;;;0.40;99.90;;;;;;5094992;28;20176;-65
2021/04/07 02:20:10;;;;;;;4.28;1.23;;;0.50;99.90;;;;;;5095011;28;20169;-65
2021/04/07 02:22:36;;;;;;;4.10;1.00;;;0.40;99.90;;;;;;5095002;28;20176;-65
2021/04/07 02:25:07;;;;;;;3.60;0.70;;;0.40;99.90;;;;;;5094524;28;20422;-65
2021/04/07 02:27:35;;;;;;;4.80;2.03;;;0.40;99.90;;;;;;5095012;28;20175;-65
2021/04/07 02:30:03;;;;;;;3.83;0.93;;;0.40;99.90;;;;;;5095030;28;20237;-65
2021/04/07 02:32:29;;;;;;;3.55;0.70;;;0.50;99.90;;;;;;5094954;28;20527;-65
2021/04/07 02:34:54;;;;;;;3.97;1.13;;;0.50;99.90;;;;;;5093924;28;20229;-65
2021/04/07 02:37:20;;;;;;;3.40;0.60;;;0.50;99.90;;;;;;5094817;28;20278;-65
2021/04/07 02:39:47;;;;;;;3.50;0.70;;;0.50;99.90;;;;;;5094959;28;20626;-66
2021/04/07 02:42:14;;;;;;;4.15;1.50;;;0.50;99.90;;;;;;5094698;28;20164;-65
2021/04/07 02:44:40;;;;;;;5.25;1.42;;;0.50;99.90;;;;;;5094263;28;20205;-65
2021/04/07 02:47:07;;;;;;;3.80;1.02;;;0.50;99.90;;;;;;5093160;28;20188;-65
2021/04/07 02:49:33;;;;;;;3.60;0.95;;;0.40;99.90;;;;;;5094257;28;20172;-65
2021/04/07 02:51:58;;;;;;;3.40;0.55;;;0.40;99.90;;;;;;5094935;28;20585;-65
2021/04/07 02:54:24;;;;;;;4.07;1.00;;;0.40;99.90;;;;;;5093967;28;20259;-65
2021/04/07 02:56:50;;;;;;;3.83;0.93;;;0.40;99.90;;;;;;5094335;28;20270;-65
2021/04/07 02:59:16;;;;;;;4.73;1.13;;;0.40;99.90;;;;;;5094268;28;20455;-65
2021/04/07 03:01:42;;;;;;;4.40;1.30;;;0.50;99.90;;;;;;5094434;28;20780;-65
2021/04/07 03:04:08;;;;;;;3.40;0.77;;;0.50;99.90;;;;;;5092834;28;20204;-65
2021/04/07 03:06:34;;;;;;;3.70;1.07;;;0.60;99.90;;;;;;5094381;28;20481;-65
2021/04/07 03:09:00;;;;;;;3.70;1.13;;;0.60;99.90;;;;;;5094110;28;20547;-65
2021/04/07 03:11:26;;;;;;;3.70;1.20;;;0.70;99.90;;;;;;5093831;28;20443;-65
2021/04/07 03:13:52;;;;;;;3.88;0.95;;;0.70;99.90;;;;;;5093976;28;20516;-65
2021/04/07 03:16:18;;;;;;;5.70;3.93;;;0.70;99.90;;;;;;5093942;28;20188;-65
2021/04/07 03:18:43;;;;;;;3.73;1.30;;;0.70;99.90;;;;;;5093494;28;20267;-65
2021/04/07 03:21:09;;;;;;;4.17;1.50;;;0.80;99.90;;;;;;5093371;28;20980;-65
2021/04/07 03:23:35;;;;;;;3.72;1.27;;;0.80;99.90;;;;;;5093777;28;20535;-64
2021/04/07 03:26:01;;;;;;;3.80;1.27;;;0.80;99.90;;;;;;5093347;28;20192;-65
2021/04/07 03:28:27;;;;;;;3.30;1.00;;;0.80;99.90;;;;;;5093834;28;20413;-65
2021/04/07 03:30:53;;;;;;;3.60;1.07;;;0.80;99.90;;;;;;5093832;28;20172;-65
2021/04/07 03:33:30;;;;;;;3.30;0.53;;;0.80;99.90;;;;;;5093488;28;20176;-65
2021/04/07 03:35:57;;;;;;;3.40;0.60;;;0.80;99.90;;;;;;5093306;28;20520;-65
2021/04/07 03:38:23;;;;;;;3.30;0.50;;;0.80;99.90;;;;;;5093748;28;20172;-65
2021/04/07 03:40:49;;;;;;;3.58;1.23;;;0.80;99.90;;;;;;5093699;28;20168;-65
2021/04/07 03:43:23;;;;;;;4.27;1.00;;;0.90;99.90;;;;;;5093480;28;20290;-65
2021/04/07 03:45:50;;;;;;;3.50;1.20;;;0.90;99.90;;;;;;5091864;28;20939;-65
2021/04/07 03:48:18;;;;;;;3.40;0.70;;;0.90;99.90;;;;;;5093351;28;20219;-65
2021/04/07 03:50:46;;;;;;;3.40;0.52;;;0.90;99.90;;;;;;5093137;28;20530;-65
2021/04/07 03:53:12;;;;;;;3.38;0.55;;;0.90;99.90;;;;;;5093378;28;20635;-66
2021/04/07 03:55:39;;;;;;;3.50;0.70;;;0.90;99.90;;;;;;5092529;28;20198;-66
2021/04/07 03:58:05;;;;;;;3.78;1.20;;;1.00;99.90;;;;;;5093458;28;20654;-65
2021/04/07 04:00:31;;;;;;;5.20;1.10;;;1.00;99.90;;;;;;5093492;28;20255;-66
2021/04/07 04:02:57;;;;;;;3.90;0.70;;;1.00;99.90;;;;;;5093454;28;20532;-65
2021/04/07 04:05:24;;;;;;;3.70;0.80;;;0.90;99.90;;;;;;5093017;28;20676;-66
2021/04/07 04:07:50;;;;;;;3.60;0.80;;;1.00;99.90;;;;;;5093402;28;20630;-65
2021/04/07 04:10:16;;;;;;;4.82;1.30;;;1.00;99.90;;;;;;5093178;28;20179;-65
2021/04/07 04:12:42;;;;;;;3.60;0.70;;;1.00;99.90;;;;;;5092925;28;20196;-65
2021/04/07 04:15:11;;;;;;;3.70;0.70;;;1.00;99.90;;;;;;5094272;28;20245;-65
2021/04/07 04:17:39;;;;;;;4.25;1.08;;;1.00;99.90;;;;;;5097562;28;20418;-65
2021/04/07 04:20:06;;;;;;;3.42;0.50;;;1.00;99.90;;;;;;5096305;28;20164;-65
2021/04/07 04:22:32;;;;;;;4.10;1.38;;;1.00;99.90;;;;;;5096013;28;20233;-65
2021/04/07 04:24:58;;;;;;;3.60;0.50;;;1.00;99.90;;;;;;5096893;28;20168;-66
2021/04/07 04:27:23;;;;;;;3.97;0.90;;;1.00;99.90;;;;;;5096219;28;20670;-65
2021/04/07 04:29:49;;;;;;;3.57;0.50;;;1.00;99.90;;;;;;5096936;28;20172;-65
2021/04/07 04:32:15;;;;;;;4.00;0.90;;;0.90;99.90;;;;;;5097245;28;20206;-66
2021/04/07 04:34:40;;;;;;;3.87;1.17;;;1.00;99.90;;;;;;5096734;28;20593;-65
2021/04/07 04:37:06;;;;;;;3.80;1.40;;;1.00;99.90;;;;;;5097045;28;20188;-66
2021/04/07 04:39:32;;;;;;;3.67;0.77;;;1.00;99.90;;;;;;5097107;28;20213;-65
2021/04/07 04:41:58;;;;;;;3.80;1.02;;;1.00;99.90;;;;;;5096643;28;20241;-64
2021/04/07 04:44:24;;;;;;;3.50;0.50;;;1.00;99.90;;;;;;5096524;28;20207;-65
2021/04/07 04:46:49;;;;;;;3.50;0.50;;;0.90;99.90;;;;;;5096898;28;20190;-65
2021/04/07 04:49:15;;;;;;;3.50;0.43;;;0.90;99.90;;;;;;5095373;28;20213;-64
2021/04/07 04:51:41;;;;;;;3.50;0.50;;;0.90;99.90;;;;;;5096864;28;20173;-65
2021/04/07 04:54:07;;;;;;;3.70;0.93;;;1.00;99.90;;;;;;5096499;28;20410;-65
2021/04/07 04:56:33;;;;;;;4.72;2.17;;;1.00;99.90;;;;;;5096165;28;20200;-65
2021/04/07 04:58:58;;;;;;;3.53;0.67;;;1.00;99.90;;;;;;5096496;28;20229;-65
2021/04/07 05:01:24;;;;;;;3.80;1.13;;;1.00;99.90;;;;;;5096465;28;20180;-66
2021/04/07 05:03:50;;;;;;;3.90;0.80;;;1.10;99.90;;;;;;5095840;28;20203;-67
2021/04/07 05:06:15;;;;;;;4.37;1.37;;;1.10;99.90;;;;;;5096189;28;20600;-65
2021/04/07 05:08:45;;;;;;;3.90;1.17;;;1.10;99.90;;;;;;5096546;28;20175;-65
2021/04/07 05:11:11;;;;;;;4.35;1.30;;;1.10;99.90;;;;;;5096264;28;20174;-65
2021/04/07 05:13:36;;;;;;;4.20;1.40;;;1.10;99.90;;;;;;5096233;28;20251;-66
2021/04/07 05:16:02;;;;;;;3.50;0.47;;;1.10;99.90;;;;;;5095737;28;20231;-65
2021/04/07 05:18:28;;;;;;;3.70;0.90;;;1.10;99.90;;;;;;5095591;28;20309;-66
2021/04/07 05:20:54;;;;;;;3.60;0.60;;;1.20;99.90;;;;;;5096607;28;20421;-67
2021/04/07 05:23:19;;;;;;;3.63;0.70;;;1.20;99.90;;;;;;5096252;28;20674;-67
2021/04/07 05:25:45;;;;;;;3.80;0.60;;;1.20;99.90;;;;;;5095578;28;20195;-64
2021/04/07 05:28:10;;;;;;;3.60;0.70;;;1.20;99.90;;;;;;5094993;28;20171;-66
2021/04/07 05:33:22;;;;;;;4.07;1.23;;;1.20;99.90;;;;;;5096111;28;20193;-66
2021/04/07 05:35:48;;;;;;;5.68;0.80;;;1.20;99.90;;;;;;5095650;28;20254;-66
2021/04/07 05:38:14;;;;;;;3.60;0.50;;;1.30;99.90;;;;;;5095998;28;20320;-67
2021/04/07 05:40:42;;;;;;;3.63;0.60;;;1.30;99.90;;;;;;5095684;28;20251;-66
2021/04/07 05:43:08;;;;;;;4.53;0.95;;;1.40;99.90;;;;;;5095455;28;20195;-66
2021/04/07 05:45:38;;;;;;;6.07;3.88;;;1.50;99.90;;;;;;5095251;28;20576;-66
2021/04/07 05:48:08;;;;;;;6.82;1.10;;;1.50;99.90;;;;;;5095785;28;20186;-67
2021/04/07 05:50:53;;;;;;;3.90;0.75;;;1.60;99.90;;;;;;5093971;28;20536;-66
2021/04/07 05:53:19;;;;;;;3.80;0.63;;;1.60;99.90;;;;;;5095121;28;20199;-64
2021/04/07 05:55:47;;;;;;;4.20;0.90;;;1.70;99.90;;;;;;5093600;28;20602;-64
2021/04/07 05:58:14;;;;;;;4.78;2.08;;;1.80;99.90;;;;;;5095491;28;20453;-64
2021/04/07 06:00:40;;;;;;;3.90;0.88;;;1.80;99.90;;;;;;5095557;28;20172;-65
2021/04/07 06:03:07;;;;;;;3.80;0.70;;;1.80;99.90;;;;;;5094043;28;20256;-65
2021/04/07 06:05:37;;;;;;;3.80;0.50;;;1.90;99.90;;;;;;5094531;28;20188;-65
2021/04/07 06:08:04;;;;;;;5.28;2.05;;;1.90;99.90;;;;;;5095072;28;20174;-65
2021/04/07 06:10:31;;;;;;;4.10;1.25;;;2.00;99.90;;;;;;5094903;28;20182;-66
2021/04/07 06:12:58;;;;;;;4.10;0.90;;;2.10;99.90;;;;;;5095275;28;20176;-66
2021/04/07 06:15:24;;;;;;;3.90;0.60;;;2.20;99.90;;;;;;5094792;28;20168;-66
2021/04/07 06:17:56;;;;;;;3.78;0.70;;;2.30;99.90;;;;;;5093658;28;20187;-67
2021/04/07 06:20:23;;;;;;;3.70;0.60;;;2.40;99.90;;;;;;5094962;28;20172;-66
2021/04/07 06:22:50;;;;;;;3.65;0.50;;;2.40;99.90;;;;;;5095049;28;20168;-66
2021/04/07 06:25:16;;;;;;;3.80;0.77;;;2.50;99.90;;;;;;5094088;28;20168;-66
2021/04/07 06:27:42;;;;;;;3.70;0.60;;;2.60;99.90;;;;;;5086637;28;20184;-66
2021/04/07 06:30:09;;;;;;;3.70;0.60;;;2.70;99.90;;;;;;5083416;28;20177;-63
2021/04/07 06:32:34;;;;;;;3.80;0.60;;;2.80;99.90;;;;;;5074877;28;20176;-64
2021/04/07 06:35:00;;;;;;;3.80;0.63;;;3.00;99.90;;;;;;5074164;28;20173;-65
2021/04/07 06:37:26;;;;;;;3.80;0.50;;;3.10;99.90;;;;;;5074244;28;20192;-66
2021/04/07 06:39:51;;;;;;;3.90;0.77;;;3.20;99.90;;;;;;5085178;28;20531;-65
2021/04/07 06:42:18;;;;;;;4.10;0.90;;;3.40;99.90;;;;;;5094077;28;20995;-64
2021/04/07 06:44:44;;;;;;;4.30;0.73;;;3.90;99.90;;;;;;5092783;28;20235;-66
2021/04/07 06:47:12;;;;;;;3.87;0.63;;;4.20;99.90;;;;;;5094301;28;20230;-67
2021/04/07 06:49:41;;;;;;;3.90;0.70;;;4.40;99.90;;;;;;5094512;28;20398;-67
2021/04/07 06:52:12;;;;;;;3.90;0.70;;;4.90;99.90;;;;;;5094508;28;20175;-66
2021/04/07 06:54:40;;;;;;;3.97;0.50;;;5.30;99.90;;;;;;5093351;28;20168;-66
2021/04/07 06:57:05;;;;;;;3.80;0.50;;;5.50;98.90;;;;;;5094259;28;20190;-66
2021/04/07 06:59:43;;;;;;;3.80;0.60;;;5.60;98.10;;;;;;5070590;28;20530;-65
2021/04/07 07:02:12;;;;;;;5.00;1.40;;;5.70;97.10;;;;;;5070431;28;20673;-66
2021/04/07 07:04:39;;;;;;;4.50;0.93;;;5.90;97.10;;;;;;5068924;28;20200;-65
2021/04/07 07:07:06;;;;;;;3.80;0.55;;;6.30;96.70;;;;;;5068526;28;20278;-65
2021/04/07 07:09:31;;;;;;;4.10;0.70;;;6.40;96.30;;;;;;5064281;28;20174;-68
2021/04/07 07:11:58;;;;;;;7.77;1.00;;;6.50;95.10;;;;;;5050137;28;20180;-65
2021/04/07 07:14:24;;;;;;;3.67;0.60;;;6.70;94.60;;;;;;5050229;28;20227;-65
2021/04/07 07:16:51;;;;;;;4.50;1.23;;;6.70;94.10;;;;;;5050163;28;20201;-65
2021/04/07 07:19:31;;;;;;;3.80;0.60;;;6.70;93.70;;;;;;5062262;28;20207;-66
2021/04/07 07:21:57;;;;;;;3.50;0.50;;;6.50;93.40;;;;;;5070331;28;20176;-68
2021/04/07 07:24:37;;;;;;;3.63;0.57;;;6.60;93.70;;;;;;5063169;28;20170;-68
2021/04/07 07:27:07;;;;;;;3.58;0.50;;;6.60;93.30;;;;;;5049886;28;20189;-67
2021/04/07 07:29:37;;;;;;;3.58;0.50;;;6.60;92.10;;;;;;5068644;28;20181;-68
2021/04/07 07:32:10;;;;;;;3.90;0.90;;;6.60;92.70;;;;;;5068619;28;20183;-67
2021/04/07 07:34:36;;;;;;;3.58;0.63;;;6.50;92.20;;;;;;5069474;28;20184;-67
2021/04/07 07:37:04;;;;;;;3.70;0.73;;;6.30;92.60;;;;;;5067362;28;20204;-65
2021/04/07 07:39:35;;;;;;;3.70;0.50;;;6.10;92.10;;;;;;5063217;28;20212;-65
2021/04/07 07:42:06;;;;;;;3.50;0.60;;;5.70;92.50;;;;;;5062543;28;20178;-67
2021/04/07 07:44:34;;;;;;;3.97;0.75;;;5.50;92.20;;;;;;5066012;28;20170;-67
2021/04/07 07:47:03;;;;;;;3.70;0.88;;;5.30;92.60;;;;;;5067343;28;20197;-68
2021/04/07 07:49:30;;;;;;;5.00;1.05;;;5.10;93.00;;;;;;5069373;28;20538;-68
2021/04/07 07:51:56;;;;;;;3.60;0.85;;;4.90;93.10;;;;;;5052315;28;20174;-66
2021/04/07 07:54:24;;;;;;;3.50;0.40;;;4.80;94.40;;;;;;5049026;28;20178;-70
2021/04/07 07:56:51;;;;;;;5.10;1.13;;;4.80;94.30;;;;;;5053668;28;20196;-67
2021/04/07 07:59:31;;;;;;;3.60;0.50;;;4.90;94.20;;;;;;5066894;28;20247;-66
2021/04/07 08:01:57;;;;;;;3.60;0.60;;;4.80;93.60;;;;;;5068367;28;20223;-71
2021/04/07 08:04:23;;;;;;;3.90;0.63;;;4.70;94.50;;;;;;5068275;28;20172;-69
2021/04/07 08:06:49;;;;;;;3.53;0.63;;;4.50;94.40;;;;;;5069238;28;20781;-71
2021/04/07 08:09:15;;;;;;;3.50;0.40;;;4.30;94.80;;;;;;5065500;28;20162;-71
2021/04/07 08:11:46;;;;;;;3.60;0.50;;;4.10;94.70;;;;;;5055930;28;20632;-71
2021/04/07 08:14:17;;;;;;;3.55;0.70;;;4.20;95.30;;;;;;5046081;28;20257;-69
2021/04/07 08:16:44;;;;;;;3.60;0.50;;;4.20;95.50;;;;;;5040011;28;20220;-68
2021/04/07 08:19:12;;;;;;;3.53;0.60;;;4.20;95.50;;;;;;5054451;28;20232;-67
2021/04/07 08:21:39;;;;;;;3.78;0.73;;;4.20;95.00;;;;;;5054455;28;20207;-67
2021/04/07 08:24:07;;;;;;;3.40;0.40;;;4.30;95.00;;;;;;5055369;28;20252;-66
2021/04/07 08:26:36;;;;;;;3.42;0.50;;;4.50;95.00;;;;;;5054322;28;20189;-66
2021/04/07 08:29:06;;;;;;;3.60;0.80;;;5.00;95.00;;;;;;5055047;28;20552;-68
2021/04/07 08:31:34;;;;;;;3.90;1.05;;;5.30;94.40;;;;;;5055501;28;20598;-66
2021/04/07 08:34:02;;;;;;;3.60;0.68;;;5.40;93.30;;;;;;5055125;28;20200;-66
2021/04/07 08:36:29;;;;;;;3.50;0.60;;;5.30;92.60;;;;;;5055585;28;20197;-66
2021/04/07 08:39:01;;;;;;;3.60;0.65;;;5.10;93.10;;;;;;5055277;28;20588;-67
2021/04/07 08:41:28;;;;;;;3.40;0.43;;;5.00;93.40;;;;;;5055133;28;20244;-66
2021/04/07 08:43:54;;;;;;;3.40;0.50;;;4.90;93.20;;;;;;5044475;28;20524;-67
2021/04/07 08:46:26;;;;;;;3.50;0.60;;;4.90;93.70;;;;;;5035364;28;20198;-66
2021/04/07 08:48:52;;;;;;;3.50;0.60;;;4.90;94.40;;;;;;5046055;28;20181;-66
2021/04/07 08:51:19;;;;;;;3.40;0.30;;;4.90;94.40;;;;;;5048701;28;20189;-67
2021/04/07 08:53:49;;;;;;;3.50;0.52;;;4.80;94.10;;;;;;5034792;28;20265;-65
2021/04/07 08:56:22;;;;;;;3.45;0.60;;;4.70;94.20;;;;;;5039888;28;20260;-65
2021/04/07 08:58:52;;;;;;;3.50;0.50;;;4.70;94.80;;;;;;5042667;28;20251;-68
2021/04/07 09:01:24;;;;;;;3.50;0.60;;;4.70;94.70;;;;;;5044638;28;20178;-67
2021/04/07 09:03:50;;;;;;;3.70;0.50;;;4.90;94.30;;;;;;5042105;28;20204;-66
2021/04/07 09:06:16;;;;;;;3.42;0.50;;;5.00;93.80;;;;;;5044843;28;20243;-68
2021/04/07 09:08:55;;;;;;;4.40;1.10;;;5.10;93.90;;;;;;5043343;28;20659;-65
2021/04/07 09:11:47;;;;;;;3.42;0.50;;;5.50;93.20;;;;;;5044639;28;20412;-66
2021/04/07 09:14:14;;;;;;;4.28;1.65;;;5.90;92.80;;;;;;5044197;28;20625;-65
2021/04/07 09:16:41;;;;;;;3.40;0.50;;;6.10;92.50;;;;;;5040861;28;20198;-67
2021/04/07 09:19:24;;;;;;;3.40;0.50;;;6.10;92.60;;;;;;5042290;28;20665;-67
2021/04/07 09:22:08;;;;;;;3.60;0.73;;;5.90;93.10;;;;;;5043173;28;20175;-66
2021/04/07 09:24:40;;;;;;;3.30;0.60;;;5.70;93.60;;;;;;5043790;28;20205;-65
2021/04/07 09:27:08;;;;;;;3.50;0.75;;;5.60;94.20;;;;;;5043642;28;20255;-66
2021/04/07 09:29:39;;;;;;;6.10;1.60;;;5.60;95.00;;;;;;5034797;28;20185;-67
2021/04/07 09:32:15;;;;;;;4.78;0.85;;;5.60;95.30;;;;;;5034644;28;20227;-68
2021/04/07 09:34:42;;;;;;;3.70;1.27;;;5.60;94.90;;;;;;5039636;28;20648;-67
2021/04/07 09:37:08;;;;;;;3.50;0.50;;;5.70;94.70;;;;;;5044900;28;20277;-68
2021/04/07 09:39:37;;;;;;;3.40;0.70;;;5.80;94.70;;;;;;5034431;28;20198;-66
2021/04/07 09:42:03;;;;;;;3.55;0.93;;;5.80;94.90;;;;;;5034157;28;20177;-67
2021/04/07 09:44:29;;;;;;;4.43;1.70;;;6.00;94.40;;;;;;5034134;28;20174;-65
2021/04/07 09:46:56;;;;;;;3.97;0.93;;;6.40;93.80;;;;;;5034155;28;20190;-65
2021/04/07 09:49:29;;;;;;;3.63;1.13;;;6.60;93.00;;;;;;5034216;28;20252;-65
2021/04/07 09:51:56;;;;;;;3.80;0.68;;;6.70;92.50;;;;;;5045259;28;20538;-67
2021/04/07 09:54:24;;;;;;;3.80;0.95;;;6.90;91.50;;;;;;5043950;28;20224;-66
2021/04/07 09:56:55;;;;;;;3.50;0.65;;;7.10;91.30;;;;;;5041524;28;20267;-66
2021/04/07 09:59:35;;;;;;;3.75;0.90;;;7.40;92.20;;;;;;5045274;28;20209;-65
2021/04/07 10:02:02;;;;;;;3.85;0.95;;;7.90;91.50;;;;;;5033783;28;20240;-64
2021/04/07 10:04:33;;;;;;;3.47;0.90;;;8.30;90.50;;;;;;5033498;28;20171;-63
2021/04/07 10:07:14;;;;;;;3.20;0.60;;;8.40;90.10;;;;;;5047773;28;20193;-63
2021/04/07 10:09:42;;;;;;;3.63;1.10;;;8.50;86.50;;;;;;5053689;28;20659;-64
2021/04/07 10:12:09;;;;;;;4.60;1.15;;;8.60;86.80;;;;;;5034638;28;20185;-64
2021/04/07 10:14:34;;;;;;;3.45;0.82;;;8.60;85.10;;;;;;5033208;28;20197;-65
2021/04/07 10:17:18;;;;;;;3.90;0.80;;;8.50;85.00;;;;;;5050289;28;20702;-70
2021/04/07 10:19:44;;;;;;;4.85;1.55;;;8.60;83.30;;;;;;5040372;28;20181;-68
2021/04/07 10:22:18;;;;;;;3.13;0.73;;;8.40;83.10;;;;;;5070259;28;20234;-69
2021/04/07 10:24:46;;;;;;;3.30;0.60;;;8.10;82.60;;;;;;5066439;28;20258;-68
2021/04/07 10:27:24;;;;;;;6.43;1.00;;;7.70;84.50;;;;;;5053072;28;20770;-71
2021/04/07 10:30:04;;;;;;;3.85;0.95;;;7.20;85.10;;;;;;5053236;28;20184;-69
2021/04/07 10:32:29;;;;;;;3.00;0.50;;;6.70;88.40;;;;;;5053256;28;20175;-69
2021/04/07 10:35:02;;;;;;;3.10;0.40;;;6.40;90.10;;;;;;5052974;28;20162;-70
2021/04/07 10:37:27;;;;;;;3.08;0.45;;;6.20;90.20;;;;;;5035935;28;20194;-69
2021/04/07 10:39:53;;;;;;;16.97;1.13;;;6.10;90.90;;;;;;5033322;28;20255;-71
2021/04/07 10:42:19;;;;;;;3.20;0.50;;;6.00;91.30;;;;;;5033240;28;20194;-71
2021/04/07 10:44:57;;;;;;;3.10;0.55;;;6.10;92.20;;;;;;5036179;28;20523;-76
2021/04/07 10:47:26;;;;;;;3.22;0.60;;;6.20;92.50;;;;;;5053092;28;20192;-73
2021/04/07 10:49:53;;;;;;;3.35;0.85;;;6.40;91.70;;;;;;5053246;28;20169;-74
2021/04/07 10:52:30;;;;;;;3.70;0.70;;;6.60;91.30;;;;;;5042544;28;20222;-70
2021/04/07 10:54:57;;;;;;;3.40;0.73;;;6.80;90.60;;;;;;5072837;28;20629;-69
2021/04/07 10:57:30;;;;;;;3.03;0.40;;;6.90;90.40;;;;;;5061989;28;20206;-70
2021/04/07 10:59:56;;;;;;;5.15;1.15;;;6.90;90.10;;;;;;5053318;28;20548;-68
2021/04/07 11:02:22;;;;;;;3.60;0.80;;;6.90;90.30;;;;;;5052999;28;20165;-71
2021/04/07 11:04:48;;;;;;;5.27;0.90;;;6.80;88.40;;;;;;5052395;28;20401;-71
2021/04/07 11:07:16;;;;;;;3.17;0.50;;;6.90;89.60;;;;;;5052676;28;20220;-70
2021/04/07 11:09:47;;;;;;;4.03;0.73;;;7.00;88.10;;;;;;5064710;28;20172;-70
2021/04/07 11:12:15;;;;;;;3.22;0.55;;;7.10;88.60;;;;;;5064261;28;20201;-75
2021/04/07 11:14:41;;;;;;;3.30;0.60;;;7.30;89.60;;;;;;5052332;28;20179;-70
2021/04/07 11:17:14;;;;;;;4.25;0.90;;;7.60;87.40;;;;;;5052841;28;20211;-70
2021/04/07 11:19:40;;;;;;;3.40;0.85;;;7.50;85.20;;;;;;5052840;28;20209;-68
2021/04/07 11:22:07;;;;;;;3.30;0.80;;;7.80;85.00;;;;;;5052619;28;20179;-68
2021/04/07 11:24:32;;;;;;;3.67;0.77;;;8.00;82.90;;;;;;5052433;28;20399;-70
2021/04/07 11:26:58;;;;;;;3.50;0.80;;;8.20;83.00;;;;;;5051141;28;20452;-68
2021/04/07 11:29:24;;;;;;;3.30;0.75;;;8.40;82.70;;;;;;5052936;28;20224;-71
2021/04/07 11:31:55;;;;;;;4.40;0.87;;;8.50;81.10;;;;;;5052612;28;20319;-67
2021/04/07 11:34:27;;;;;;;2.92;0.40;;;8.60;80.30;;;;;;5035920;28;20429;-68
2021/04/07 11:39:51;;;;;;;3.35;0.80;;;8.50;80.60;;;;;;5031997;28;20237;-68
2021/04/07 11:44:45;;;;;;;3.20;0.47;;;8.70;78.10;;;;;;5053247;28;20174;-66
2021/04/07 11:47:11;;;;;;;3.30;0.50;;;8.70;77.00;;;;;;5048998;28;20193;-65
2021/04/07 11:49:37;;;;;;;4.07;1.00;;;8.70;74.90;;;;;;5037086;28;20173;-66
2021/04/07 11:52:04;;;;;;;3.27;0.40;;;8.80;75.80;;;;;;5041113;28;20458;-66
2021/04/07 11:54:30;;;;;;;3.40;0.65;;;8.80;75.90;;;;;;5055750;28;20772;-66
2021/04/07 11:56:56;;;;;;;3.10;0.50;;;8.80;73.60;;;;;;5054382;28;20197;-66
2021/04/07 11:59:24;;;;;;;3.30;0.70;;;8.70;71.70;;;;;;5055696;28;20969;-66
2021/04/07 12:01:53;;;;;;;4.53;0.85;;;8.50;72.10;;;;;;5052893;28;20176;-66
2021/04/07 12:04:20;;;;;;;3.30;0.70;;;8.20;71.90;;;;;;5038143;28;20185;-66
2021/04/07 12:06:45;;;;;;;3.20;0.50;;;8.10;69.10;;;;;;5052607;28;20667;-66
2021/04/07 12:09:11;;;;;;;6.90;0.60;;;7.90;70.00;;;;;;5037198;28;20193;-66
2021/04/07 12:11:37;;;;;;;4.47;0.80;;;7.60;71.30;;;;;;5044169;28;20190;-66
2021/04/07 12:14:04;;;;;;;3.20;0.50;;;7.30;73.50;;;;;;5035553;28;20229;-65
2021/04/07 12:16:30;;;;;;;3.30;0.60;;;7.10;75.20;;;;;;5046239;28;20204;-65
2021/04/07 12:18:57;;;;;;;3.10;0.40;;;7.00;76.60;;;;;;5041272;28;20294;-66
2021/04/07 12:21:23;;;;;;;3.50;0.75;;;6.90;77.10;;;;;;5045301;28;20244;-66
2021/04/07 12:23:49;;;;;;;3.20;0.67;;;7.00;78.30;;;;;;5055374;28;20171;-68
2021/04/07 12:26:15;;;;;;;3.20;0.70;;;6.90;78.30;;;;;;5048660;28;20443;-68
2021/04/07 12:28:42;;;;;;;3.17;0.40;;;6.80;79.30;;;;;;5055533;28;20415;-67
2021/04/07 12:31:10;;;;;;;3.50;0.68;;;6.70;79.40;;;;;;5048518;28;20222;-66
2021/04/07 12:33:36;;;;;;;3.30;0.60;;;6.50;79.40;;;;;;5047604;28;20186;-66
2021/04/07 12:36:01;;;;;;;3.33;0.47;;;6.40;82.40;;;;;;5039944;28;20201;-67
2021/04/07 12:38:30;;;;;;;3.40;0.53;;;6.40;84.10;;;;;;5034921;28;20194;-67
2021/04/07 12:40:57;;;;;;;3.75;1.00;;;6.40;84.50;;;;;;5044700;28;20178;-67
2021/04/07 12:43:23;;;;;;;3.42;0.65;;;6.20;83.90;;;;;;5033836;28;20182;-68
2021/04/07 12:45:49;;;;;;;5.10;0.98;;;6.10;85.50;;;;;;5037622;28;20198;-68
2021/04/07 12:48:15;;;;;;;6.63;2.00;;;6.00;86.60;;;;;;5037325;28;20178;-67
2021/04/07 12:50:42;;;;;;;3.57;0.63;;;6.00;87.70;;;;;;5032912;28;20425;-67
2021/04/07 12:53:13;;;;;;;3.60;0.70;;;6.10;87.00;;;;;;5054838;28;20165;-67
2021/04/07 12:58:29;;;;;;;3.30;0.30;;;6.30;86.30;;;;;;5035028;28;20255;-68
2021/04/07 13:00:55;;;;;;;3.73;0.70;;;6.30;85.50;;;;;;5042937;28;20607;-68
2021/04/07 13:03:21;;;;;;;3.70;1.13;;;6.30;85.20;;;;;;5035142;28;20248;-68
2021/04/07 13:05:46;;;;;;;4.10;1.17;;;6.30;85.40;;;;;;5050061;28;20190;-67
2021/04/07 13:08:12;;;;;;;3.83;0.77;;;6.30;85.60;;;;;;5033728;28;20194;-67
2021/04/07 13:10:38;;;;;;;3.30;0.40;;;6.20;86.40;;;;;;5036031;28;20186;-68